Terminal Aerodrome Forecast
Issued by NWS Shreveport, LA

Home | Current Version | Previous Version | Text Only | Print | Product List | Glossary On
Versions: 1 2 3 4 5 6 7 8 9 10 11 12 13 14
000
FTUS44 KSHV 242300
TAFTXK
TAF
KTXK 242321Z 2500/2524 VRB03KT P6SM BKN250
     FM250600 00000KT P6SM SCT250
     FM251500 24006KT P6SM SCT050=

USA.gov is the U.S. government's official web portal to all federal, state and local government web resources and services.